createdAt,value
2022-11-17T00:01:28.831Z,6.54
2022-11-17T00:03:55.286Z,6.79
2022-11-17T00:06:21.715Z,6.67
2022-11-17T00:08:48.349Z,6.97
2022-11-17T00:11:14.950Z,6.54
2022-11-17T00:13:41.358Z,6.64
2022-11-17T00:16:12.331Z,6.67
2022-11-17T00:18:38.751Z,6.55
2022-11-17T00:21:05.511Z,6.28
2022-11-17T00:23:32.090Z,6.58
2022-11-17T00:25:58.630Z,6.36
2022-11-17T00:28:24.998Z,6.57
2022-11-17T00:30:52.782Z,6.36
2022-11-17T00:33:20.662Z,6.19
2022-11-17T00:35:51.225Z,6.17
2022-11-17T00:38:17.671Z,6.40
2022-11-17T00:40:44.062Z,6.29
2022-11-17T00:43:10.544Z,6.48
2022-11-17T00:45:36.967Z,6.47
2022-11-17T00:48:03.685Z,6.58
2022-11-17T00:50:31.417Z,6.45
2022-11-17T00:52:57.828Z,6.42
2022-11-17T00:55:24.424Z,6.36
2022-11-17T00:57:50.868Z,6.24
2022-11-17T01:00:17.673Z,6.31
2022-11-17T01:02:44.062Z,6.07
2022-11-17T01:05:10.476Z,6.24
2022-11-17T01:07:38.264Z,6.13
2022-11-17T01:10:05.505Z,6.24
2022-11-17T01:12:31.883Z,5.96
2022-11-17T01:14:58.315Z,5.75
2022-11-17T01:17:25.007Z,6.59
2022-11-17T01:19:51.414Z,6.25
2022-11-17T01:22:17.889Z,6.01
2022-11-17T01:24:45.658Z,5.98
2022-11-17T01:27:12.093Z,6.35
2022-11-17T01:29:38.600Z,6.14
2022-11-17T01:32:05.164Z,6.27
2022-11-17T01:34:31.560Z,6.32
2022-11-17T01:36:57.995Z,6.13
2022-11-17T01:39:25.970Z,5.98
2022-11-17T01:41:54.615Z,6.14
2022-11-17T01:44:51.257Z,6.14
2022-11-17T01:47:23.408Z,5.85
2022-11-17T01:49:54.395Z,6.14
2022-11-17T01:52:21.270Z,6.52
2022-11-17T01:54:48.609Z,6.00
2022-11-17T01:57:21.183Z,6.07
2022-11-17T01:59:51.684Z,5.59
2022-11-17T02:02:19.491Z,5.85
2022-11-17T02:04:49.586Z,5.96
2022-11-17T02:07:20.872Z,5.92
2022-11-17T02:09:47.514Z,5.80
2022-11-17T02:12:16.504Z,5.84
2022-11-17T02:14:42.924Z,6.07
2022-11-17T02:17:14.278Z,6.00
2022-11-17T02:19:42.912Z,5.97
2022-11-17T02:22:26.287Z,5.86
2022-11-17T02:25:26.955Z,6.16
2022-11-17T02:28:10.777Z,6.01
2022-11-17T02:30:46.591Z,6.23
2022-11-17T02:33:23.992Z,5.92
2022-11-17T02:35:58.282Z,6.03
2022-11-17T02:38:32.549Z,6.53
2022-11-17T02:41:13.706Z,6.40
2022-11-17T02:43:50.851Z,5.97
2022-11-17T02:46:21.316Z,6.16
2022-11-17T02:48:53.870Z,6.14
2022-11-17T02:51:22.597Z,5.93
2022-11-17T02:53:51.373Z,5.92
2022-11-17T02:56:17.781Z,5.74
2022-11-17T02:58:49.424Z,5.83
2022-11-17T03:01:32.437Z,5.92
2022-11-17T03:04:17.495Z,5.67
2022-11-17T03:06:53.310Z,5.93
2022-11-17T03:09:30.180Z,5.81
2022-11-17T03:12:03.639Z,5.84
2022-11-17T03:14:40.407Z,5.77
2022-11-17T03:17:14.270Z,5.59
2022-11-17T03:19:47.236Z,5.67
2022-11-17T03:22:20.032Z,5.81
2022-11-17T03:24:50.287Z,5.63
2022-11-17T03:27:21.688Z,5.60
2022-11-17T03:29:55.563Z,5.41
2022-11-17T03:32:23.325Z,5.72
2022-11-17T03:34:55.358Z,5.57
2022-11-17T03:37:23.411Z,5.52
2022-11-17T03:39:53.667Z,5.80
2022-11-17T03:42:24.303Z,5.97
2022-11-17T03:44:55.795Z,6.02
2022-11-17T03:47:26.763Z,5.66
2022-11-17T03:49:57.580Z,5.82
2022-11-17T03:52:24.495Z,5.82
2022-11-17T03:54:51.763Z,5.84
2022-11-17T03:57:25.240Z,5.69
2022-11-17T03:59:57.657Z,5.90
2022-11-17T04:02:25.939Z,6.10
2022-11-17T04:04:52.368Z,5.94
2022-11-17T04:07:18.893Z,5.95
2022-11-17T04:09:45.361Z,5.91
2022-11-17T04:12:11.739Z,6.07
2022-11-17T04:14:38.140Z,5.71
2022-11-17T04:17:06.143Z,5.68
2022-11-17T04:19:32.672Z,5.72
2022-11-17T04:21:59.323Z,5.66
2022-11-17T04:24:25.742Z,5.49
2022-11-17T04:26:52.243Z,5.50
2022-11-17T04:29:18.623Z,5.41
2022-11-17T04:31:45.354Z,5.53
2022-11-17T04:34:13.079Z,5.58
2022-11-17T04:36:40.899Z,5.52
2022-11-17T04:39:07.386Z,5.29
2022-11-17T04:41:34.907Z,5.27
2022-11-17T04:44:02.275Z,5.41
2022-11-17T04:46:29.976Z,5.37
2022-11-17T04:48:57.106Z,5.28
2022-11-17T04:51:26.273Z,5.36
2022-11-17T04:53:53.349Z,5.19
2022-11-17T04:56:21.199Z,5.30
2022-11-17T04:58:48.043Z,5.18
2022-11-17T05:01:14.851Z,5.24
2022-11-17T05:03:42.674Z,5.39
2022-11-17T05:06:09.721Z,5.44
2022-11-17T05:08:37.795Z,5.25
2022-11-17T05:11:05.867Z,5.23
2022-11-17T05:13:32.436Z,5.02
2022-11-17T05:15:58.957Z,5.07
2022-11-17T05:18:25.355Z,4.99
2022-11-17T05:20:51.735Z,5.19
2022-11-17T05:23:18.143Z,5.27
2022-11-17T05:25:45.885Z,5.26
2022-11-17T05:28:12.280Z,5.36
2022-11-17T05:30:38.718Z,5.25
2022-11-17T05:33:05.169Z,5.35
2022-11-17T05:35:31.600Z,5.27
2022-11-17T05:37:58.349Z,5.40
2022-11-17T05:40:24.731Z,5.41
2022-11-17T05:42:56.953Z,5.73
2022-11-17T05:45:24.113Z,5.49
2022-11-17T05:47:50.509Z,5.40
2022-11-17T05:50:16.978Z,5.33
2022-11-17T05:52:43.392Z,5.24
2022-11-17T05:55:09.796Z,5.25
2022-11-17T05:57:36.335Z,5.55
2022-11-17T06:00:05.709Z,5.45
2022-11-17T06:02:36.569Z,5.52
2022-11-17T06:05:03.351Z,5.20
2022-11-17T06:07:29.861Z,5.68
2022-11-17T06:09:56.594Z,5.35
2022-11-17T06:12:22.982Z,5.17
2022-11-17T06:14:49.431Z,5.32
2022-11-17T06:17:22.813Z,5.12
2022-11-17T06:19:51.306Z,5.31
2022-11-17T06:22:17.746Z,5.50
2022-11-17T06:24:45.538Z,5.48
2022-11-17T06:27:14.918Z,5.04
2022-11-17T06:29:44.596Z,5.19
2022-11-17T06:32:12.446Z,5.07
2022-11-17T06:34:41.034Z,5.13
2022-11-17T06:37:07.463Z,5.09
2022-11-17T06:39:33.908Z,4.97
2022-11-17T06:42:00.428Z,5.30
2022-11-17T06:44:26.853Z,5.07
2022-11-17T06:46:53.234Z,5.29
2022-11-17T06:49:19.853Z,5.17
2022-11-17T06:51:47.605Z,4.95
2022-11-17T06:54:14.263Z,4.77
2022-11-17T06:56:40.820Z,4.80
2022-11-17T06:59:07.239Z,4.67
2022-11-17T07:01:33.742Z,4.91
2022-11-17T07:04:00.205Z,4.81
2022-11-17T07:06:26.699Z,4.67
2022-11-17T07:08:54.537Z,4.70
2022-11-17T07:11:21.129Z,5.05
2022-11-17T07:13:47.611Z,4.88
2022-11-17T07:16:21.832Z,4.98
2022-11-17T07:18:50.217Z,4.73
2022-11-17T07:21:16.609Z,4.76
2022-11-17T07:23:43.377Z,4.66
2022-11-17T07:26:11.584Z,4.59
2022-11-17T07:28:38.335Z,4.45
2022-11-17T07:31:07.301Z,4.54
2022-11-17T07:33:34.288Z,4.60
2022-11-17T07:36:04.720Z,4.51
2022-11-17T07:38:32.613Z,4.50
2022-11-17T07:40:59.779Z,4.60
2022-11-17T07:43:27.887Z,4.70
2022-11-17T07:45:54.349Z,4.39
2022-11-17T07:48:21.156Z,4.42
2022-11-17T07:50:48.090Z,4.41
2022-11-17T07:53:14.583Z,4.44
2022-11-17T07:55:41.230Z,4.10
2022-11-17T07:58:07.647Z,4.32
2022-11-17T08:00:35.547Z,4.17
2022-11-17T08:03:02.569Z,4.05
2022-11-17T08:05:29.170Z,3.84
2022-11-17T08:07:56.526Z,3.91
2022-11-17T08:10:23.200Z,4.11
2022-11-17T08:12:50.971Z,4.02
2022-11-17T08:15:17.454Z,3.94
2022-11-17T08:17:45.231Z,3.94
2022-11-17T08:20:12.201Z,3.98
2022-11-17T08:22:38.675Z,4.08
2022-11-17T08:25:05.991Z,3.90
2022-11-17T08:27:32.390Z,4.17
2022-11-17T08:29:58.838Z,3.86
2022-11-17T08:32:25.255Z,4.02
2022-11-17T08:34:53.229Z,3.79
2022-11-17T08:37:19.605Z,4.01
2022-11-17T08:39:46.026Z,4.01
2022-11-17T08:42:12.423Z,4.09
2022-11-17T08:44:38.974Z,4.14
2022-11-17T08:47:05.822Z,4.12
2022-11-17T08:49:32.221Z,4.10
2022-11-17T08:51:59.965Z,4.27
2022-11-17T08:54:26.563Z,4.02
2022-11-17T08:56:57.010Z,4.18
2022-11-17T08:59:23.677Z,4.29
2022-11-17T09:01:50.085Z,4.19
2022-11-17T09:04:17.139Z,4.21
2022-11-17T09:06:43.538Z,4.16
2022-11-17T09:09:11.308Z,4.25
2022-11-17T09:11:37.782Z,4.29
2022-11-17T09:14:06.287Z,4.31
2022-11-17T09:16:32.795Z,4.25
2022-11-17T09:18:59.173Z,4.23
2022-11-17T09:21:26.339Z,4.15
2022-11-17T09:23:53.743Z,4.14
2022-11-17T09:26:21.704Z,4.26
2022-11-17T09:28:48.242Z,4.32
2022-11-17T09:31:16.966Z,4.10
2022-11-17T09:33:43.848Z,4.06
2022-11-17T09:36:11.714Z,4.35
2022-11-17T09:38:39.504Z,4.53
2022-11-17T09:41:23.088Z,4.45
2022-11-17T09:43:56.728Z,4.49
2022-11-17T09:46:30.882Z,4.91
2022-11-17T09:49:04.863Z,4.68
2022-11-17T09:51:34.097Z,4.33
2022-11-17T09:54:07.614Z,4.48
2022-11-17T09:56:35.372Z,4.58
2022-11-17T09:59:04.653Z,4.77
2022-11-17T10:01:31.412Z,4.32
2022-11-17T10:03:58.162Z,4.56
2022-11-17T10:06:25.928Z,4.71
2022-11-17T10:08:59.758Z,4.62
2022-11-17T10:11:27.880Z,4.61
2022-11-17T10:13:55.688Z,4.66
2022-11-17T10:16:22.232Z,4.55
2022-11-17T10:18:48.652Z,4.79
2022-11-17T10:21:15.073Z,4.69
2022-11-17T10:23:50.343Z,4.85
2022-11-17T10:26:16.803Z,4.86
2022-11-17T10:28:43.925Z,4.59
2022-11-17T10:31:14.801Z,4.68
2022-11-17T10:33:43.443Z,4.90
2022-11-17T10:36:18.031Z,4.92
2022-11-17T10:38:45.934Z,4.76
2022-11-17T10:41:15.592Z,4.79
2022-11-17T10:43:53.936Z,4.73
2022-11-17T10:46:21.702Z,4.70
2022-11-17T10:48:56.357Z,4.69
2022-11-17T10:51:24.395Z,4.73
2022-11-17T10:54:02.178Z,4.72
2022-11-17T10:56:30.773Z,4.51
2022-11-17T10:59:02.001Z,4.78
2022-11-17T11:01:32.152Z,4.58
2022-11-17T11:03:58.669Z,4.45
2022-11-17T11:06:27.327Z,4.57
2022-11-17T11:08:57.023Z,4.73
2022-11-17T11:11:36.541Z,4.60
2022-11-17T11:14:11.986Z,4.59
2022-11-17T11:16:46.596Z,4.69
2022-11-17T11:22:02.148Z,4.79
2022-11-17T11:24:38.505Z,4.77
2022-11-17T11:27:19.714Z,4.85
2022-11-17T11:29:56.248Z,4.89
2022-11-17T11:32:33.651Z,4.83
2022-11-17T11:35:32.035Z,4.87
2022-11-17T11:38:08.195Z,4.77
2022-11-17T11:40:38.401Z,5.00
2022-11-17T11:43:18.042Z,4.79
2022-11-17T11:45:54.274Z,4.82
2022-11-17T11:48:26.630Z,4.68
2022-11-17T11:50:57.417Z,4.83
2022-11-17T11:53:41.837Z,4.84
2022-11-17T11:58:47.709Z,4.97
2022-11-17T12:01:15.130Z,5.04
2022-11-17T12:03:49.853Z,5.01
2022-11-17T12:06:26.759Z,5.17
2022-11-17T12:09:01.803Z,5.09
2022-11-17T12:11:28.870Z,4.99
2022-11-17T12:13:57.079Z,5.03
2022-11-17T12:16:28.375Z,5.05
2022-11-17T12:18:56.172Z,4.87
2022-11-17T12:21:24.357Z,4.95
2022-11-17T12:24:09.839Z,5.03
2022-11-17T12:26:36.523Z,5.03
2022-11-17T12:29:28.654Z,4.90
2022-11-17T12:31:56.535Z,4.90
2022-11-17T12:34:30.383Z,4.79
2022-11-17T12:37:15.072Z,4.99
2022-11-17T12:39:54.762Z,5.15
2022-11-17T12:42:21.262Z,4.99
2022-11-17T12:44:55.970Z,4.93
2022-11-17T12:47:23.929Z,4.96
2022-11-17T12:50:31.924Z,5.24
2022-11-17T12:53:16.543Z,5.25
2022-11-17T12:55:57.505Z,5.20
2022-11-17T12:58:33.667Z,5.07
2022-11-17T13:01:09.824Z,5.20
2022-11-17T13:03:45.296Z,5.18
2022-11-17T13:09:03.628Z,5.48
2022-11-17T13:11:30.243Z,5.19
2022-11-17T13:14:10.798Z,5.44
2022-11-17T13:16:44.502Z,5.60
2022-11-17T13:19:29.913Z,5.60
2022-11-17T13:22:00.040Z,5.36
2022-11-17T13:24:31.116Z,5.57
2022-11-17T13:26:58.777Z,5.79
2022-11-17T13:29:25.204Z,5.63
2022-11-17T13:32:05.841Z,5.62
2022-11-17T13:34:32.438Z,5.41
2022-11-17T13:37:00.864Z,5.50
2022-11-17T13:39:28.204Z,5.55
2022-11-17T13:41:56.187Z,5.47
2022-11-17T13:44:25.319Z,5.37
2022-11-17T13:46:51.798Z,5.53
2022-11-17T13:49:30.650Z,5.46
2022-11-17T13:51:57.204Z,5.47
2022-11-17T13:54:25.242Z,5.71
2022-11-17T13:56:54.841Z,5.75
2022-11-17T13:59:24.273Z,5.66
2022-11-17T14:02:23.009Z,5.41
2022-11-17T14:05:04.517Z,5.60
2022-11-17T14:07:33.975Z,5.47
2022-11-17T14:10:13.125Z,5.49
2022-11-17T14:12:39.593Z,5.48
2022-11-17T14:15:13.790Z,5.60
2022-11-17T14:17:40.570Z,5.68
2022-11-17T14:20:29.595Z,5.64
2022-11-17T14:23:00.742Z,5.65
2022-11-17T14:25:28.567Z,5.64
2022-11-17T14:27:55.228Z,5.59
2022-11-17T14:30:22.247Z,5.53
2022-11-17T14:32:48.711Z,5.50
2022-11-17T14:35:15.558Z,5.68
2022-11-17T14:37:42.206Z,5.55
2022-11-17T14:40:13.115Z,5.69
2022-11-17T14:42:41.061Z,5.51
2022-11-17T14:45:09.227Z,5.55
2022-11-17T14:47:35.665Z,5.60
2022-11-17T14:50:02.100Z,5.40
2022-11-17T14:52:28.572Z,5.50
2022-11-17T14:54:54.950Z,5.46
2022-11-17T14:57:21.326Z,5.85
2022-11-17T14:59:49.663Z,5.69
2022-11-17T15:02:16.143Z,5.50
2022-11-17T15:04:50.498Z,5.60
2022-11-17T15:07:18.247Z,5.66
2022-11-17T15:09:44.677Z,5.49
2022-11-17T15:12:11.074Z,5.58
2022-11-17T15:14:37.677Z,5.64
2022-11-17T15:17:09.860Z,5.84
2022-11-17T15:19:39.367Z,5.72
2022-11-17T15:22:06.021Z,5.68
2022-11-17T15:24:32.455Z,5.76
2022-11-17T15:26:58.918Z,5.65
2022-11-17T15:29:25.335Z,5.72
2022-11-17T15:31:51.723Z,5.60
2022-11-17T15:34:20.598Z,5.47
2022-11-17T15:36:47.279Z,5.73
2022-11-17T15:39:14.114Z,5.46
2022-11-17T15:41:40.948Z,5.45
2022-11-17T15:44:07.539Z,5.59
2022-11-17T15:46:34.018Z,5.92
2022-11-17T15:49:00.585Z,5.67
2022-11-17T15:51:28.584Z,5.60
2022-11-17T15:53:57.742Z,5.72
2022-11-17T15:56:25.892Z,5.72
2022-11-17T15:58:55.377Z,5.63
2022-11-17T16:01:26.895Z,5.70
2022-11-17T16:03:57.744Z,5.79
2022-11-17T16:06:24.234Z,5.89
2022-11-17T16:08:52.163Z,6.02
2022-11-17T16:11:18.563Z,5.86
2022-11-17T16:13:44.976Z,5.48
2022-11-17T16:16:13.329Z,5.70
2022-11-17T16:18:40.122Z,5.75
2022-11-17T16:21:08.062Z,5.64
2022-11-17T16:23:38.772Z,5.58
2022-11-17T16:26:07.322Z,5.44
2022-11-17T16:28:33.722Z,5.72
2022-11-17T16:31:00.265Z,5.48
2022-11-17T16:33:26.657Z,5.50
2022-11-17T16:35:53.069Z,5.50
2022-11-17T16:38:19.494Z,5.56
2022-11-17T16:40:45.879Z,5.46
2022-11-17T16:43:13.624Z,5.55
2022-11-17T16:45:42.634Z,5.60
2022-11-17T16:48:09.087Z,5.70
2022-11-17T16:50:36.326Z,5.49
2022-11-17T16:53:02.831Z,5.77
2022-11-17T16:55:29.215Z,5.86
2022-11-17T16:57:55.670Z,5.73
2022-11-17T17:00:24.243Z,6.01
2022-11-17T17:02:50.880Z,5.63
2022-11-17T17:05:17.323Z,5.47
2022-11-17T17:07:43.791Z,5.63
2022-11-17T17:10:10.378Z,5.76
2022-11-17T17:12:36.802Z,5.71
2022-11-17T17:15:04.032Z,5.61
2022-11-17T17:17:31.929Z,5.67
2022-11-17T17:19:58.329Z,5.64
2022-11-17T17:22:24.924Z,5.61
2022-11-17T17:24:51.362Z,5.74
2022-11-17T17:27:17.733Z,5.73
2022-11-17T17:29:44.217Z,5.65
2022-11-17T17:32:10.798Z,5.87
2022-11-17T17:34:38.541Z,5.74
2022-11-17T17:37:04.968Z,5.88
2022-11-17T17:39:31.370Z,5.65
2022-11-17T17:41:57.750Z,5.79
2022-11-17T17:44:24.197Z,5.74
2022-11-17T17:46:50.595Z,5.65
2022-11-17T17:49:17.524Z,5.71
2022-11-17T17:51:45.562Z,5.49
2022-11-17T17:54:15.121Z,5.74
2022-11-17T17:56:41.533Z,5.87
2022-11-17T17:59:08.101Z,5.76
2022-11-17T18:01:34.591Z,5.95
2022-11-17T18:04:01.489Z,5.95
2022-11-17T18:06:28.379Z,5.90
2022-11-17T18:08:57.073Z,5.59
2022-11-17T18:11:24.192Z,5.63
2022-11-17T18:13:51.859Z,5.92
2022-11-17T18:16:20.786Z,5.77
2022-11-17T18:18:47.927Z,5.71
2022-11-17T18:21:16.312Z,5.67
2022-11-17T18:23:43.350Z,5.85
2022-11-17T18:26:13.955Z,5.92
2022-11-17T18:28:40.668Z,5.85
2022-11-17T18:31:07.830Z,5.71
2022-11-17T18:33:34.346Z,5.84
2022-11-17T18:36:03.086Z,5.83
2022-11-17T18:38:30.483Z,5.65
2022-11-17T18:41:02.266Z,5.62
2022-11-17T18:43:30.992Z,5.71
2022-11-17T18:46:01.111Z,5.50
2022-11-17T18:48:27.489Z,5.45
2022-11-17T18:51:18.187Z,5.62
2022-11-17T18:53:40.901Z,5.65
2022-11-17T18:56:08.599Z,5.49
2022-11-17T18:58:37.529Z,5.47
2022-11-17T19:01:08.496Z,5.51
2022-11-17T19:03:35.170Z,5.71
2022-11-17T19:06:02.167Z,5.69
2022-11-17T19:08:29.175Z,5.80
2022-11-17T19:10:55.695Z,5.64
2022-11-17T19:13:22.345Z,5.72
2022-11-17T19:15:50.914Z,5.73
2022-11-17T19:18:18.154Z,5.69
2022-11-17T19:20:45.151Z,5.83
2022-11-17T19:23:12.091Z,5.77
2022-11-17T19:25:39.794Z,5.71
2022-11-17T19:28:08.093Z,5.89
2022-11-17T19:30:34.678Z,5.99
2022-11-17T19:33:02.484Z,5.75
2022-11-17T19:35:29.275Z,6.01
2022-11-17T19:37:56.207Z,6.25
2022-11-17T19:40:22.823Z,6.00
2022-11-17T19:42:49.236Z,5.79
2022-11-17T19:45:15.854Z,5.87
2022-11-17T19:47:42.431Z,5.74
2022-11-17T19:50:10.786Z,5.71
2022-11-17T19:52:37.411Z,5.73
2022-11-17T19:55:04.232Z,5.62
2022-11-17T19:57:30.792Z,5.43
2022-11-17T19:59:57.277Z,5.86
2022-11-17T20:02:23.702Z,5.75
2022-11-17T20:04:50.135Z,5.78
2022-11-17T20:07:17.971Z,5.71
2022-11-17T20:09:44.480Z,5.63
2022-11-17T20:12:11.079Z,5.97
2022-11-17T20:14:37.570Z,5.56
2022-11-17T20:17:04.082Z,5.57
2022-11-17T20:19:30.511Z,5.58
2022-11-17T20:21:56.993Z,5.52
2022-11-17T20:24:24.828Z,5.55
2022-11-17T20:26:51.198Z,5.65
2022-11-17T20:29:18.177Z,5.77
2022-11-17T20:31:44.914Z,6.01
2022-11-17T20:34:12.729Z,5.58
2022-11-17T20:36:39.423Z,5.59
2022-11-17T20:39:06.692Z,5.55
2022-11-17T20:41:34.595Z,5.66
2022-11-17T20:44:01.497Z,5.87
2022-11-17T20:46:27.921Z,5.63
2022-11-17T20:48:54.501Z,5.84
2022-11-17T20:51:22.166Z,5.98
2022-11-17T20:53:48.933Z,5.78
2022-11-17T20:56:16.580Z,5.82
2022-11-17T20:58:44.592Z,5.71
2022-11-17T21:01:12.845Z,5.77
2022-11-17T21:03:39.313Z,5.70
2022-11-17T21:06:06.365Z,5.76
2022-11-17T21:08:34.385Z,5.70
2022-11-17T21:11:02.701Z,5.97
2022-11-17T21:13:31.274Z,5.84
2022-11-17T21:16:05.037Z,5.88
2022-11-17T21:18:31.428Z,5.92
2022-11-17T21:20:57.972Z,6.04
2022-11-17T21:23:24.385Z,5.99
2022-11-17T21:25:50.775Z,5.85
2022-11-17T21:28:17.196Z,6.19
2022-11-17T21:30:43.669Z,6.10
2022-11-17T21:33:11.440Z,6.35
2022-11-17T21:35:37.825Z,5.89
2022-11-17T21:38:04.220Z,6.01
2022-11-17T21:40:30.947Z,6.03
2022-11-17T21:42:58.764Z,6.19
2022-11-17T21:45:25.212Z,5.90
2022-11-17T21:47:56.508Z,5.60
2022-11-17T21:50:26.933Z,5.68
2022-11-17T21:52:53.358Z,5.83
2022-11-17T21:55:19.759Z,5.66
2022-11-17T21:57:49.812Z,5.73
2022-11-17T22:00:17.361Z,5.98
2022-11-17T22:02:43.731Z,5.88
2022-11-17T22:05:10.121Z,5.90
2022-11-17T22:07:37.912Z,5.69
2022-11-17T22:10:05.266Z,5.87
2022-11-17T22:12:31.653Z,5.71
2022-11-17T22:14:58.077Z,5.88
2022-11-17T22:17:24.495Z,5.77
2022-11-17T22:19:51.039Z,5.73
2022-11-17T22:22:17.467Z,5.85
2022-11-17T22:24:49.634Z,5.97
2022-11-17T22:27:16.433Z,5.67
2022-11-17T22:29:42.865Z,5.90
2022-11-17T22:32:09.299Z,6.10
2022-11-17T22:34:35.680Z,5.80
2022-11-17T22:37:02.193Z,5.62
2022-11-17T22:39:28.607Z,5.57
2022-11-17T22:44:23.329Z,5.58
2022-11-17T22:46:49.853Z,5.61
2022-11-17T22:49:16.405Z,5.85
2022-11-17T22:51:42.988Z,5.73
2022-11-17T22:54:09.827Z,5.57
2022-11-17T22:56:36.266Z,5.66
2022-11-17T22:59:04.069Z,5.53
2022-11-17T23:01:30.728Z,5.61
2022-11-17T23:03:57.508Z,5.54
2022-11-17T23:06:23.949Z,5.69
2022-11-17T23:08:50.651Z,5.54
2022-11-17T23:14:05.540Z,5.63
2022-11-17T23:16:32.076Z,5.54
2022-11-17T23:18:58.494Z,5.44
2022-11-17T23:21:25.177Z,5.43
2022-11-17T23:23:51.555Z,5.49
2022-11-17T23:26:18.223Z,5.31
2022-11-17T23:28:44.867Z,5.32
2022-11-17T23:33:42.559Z,5.34
2022-11-17T23:36:12.448Z,5.40
2022-11-17T23:38:38.839Z,5.74
2022-11-17T23:41:07.103Z,5.50
2022-11-17T23:43:33.596Z,5.60
2022-11-17T23:46:04.332Z,5.36
2022-11-17T23:48:32.157Z,5.38
2022-11-17T23:50:59.346Z,5.46
2022-11-17T23:53:25.722Z,5.41
2022-11-17T23:55:55.277Z,5.20
2022-11-17T23:58:21.886Z,5.17
